createdAt,value
2018-09-17T00:01:11.146Z,16.83
2018-09-17T00:03:39.831Z,16.53
2018-09-17T00:06:08.325Z,17.20
2018-09-17T00:08:37.416Z,16.40
2018-09-17T00:11:06.031Z,16.07
2018-09-17T00:13:34.672Z,17.60
2018-09-17T00:16:03.259Z,17.03
2018-09-17T00:18:31.940Z,16.63
2018-09-17T00:21:00.523Z,17.30
2018-09-17T00:23:29.209Z,18.20
2018-09-17T00:25:57.590Z,18.47
2018-09-17T00:28:26.170Z,18.47
2018-09-17T00:30:55.162Z,18.33
2018-09-17T00:33:23.645Z,19.33
2018-09-17T00:35:52.125Z,19.20
2018-09-17T00:38:20.611Z,18.37
2018-09-17T00:40:49.084Z,18.90
2018-09-17T00:43:18.028Z,17.83
2018-09-17T00:45:46.661Z,17.87
2018-09-17T00:48:15.244Z,18.27
2018-09-17T00:50:43.825Z,17.33
2018-09-17T00:53:12.422Z,17.20
2018-09-17T00:55:40.902Z,17.17
2018-09-17T00:58:09.294Z,18.20
2018-09-17T01:00:37.903Z,17.90
2018-09-17T01:03:06.746Z,17.43
2018-09-17T01:05:35.429Z,17.53
2018-09-17T01:08:04.121Z,17.53
2018-09-17T01:10:32.602Z,18.10
2018-09-17T01:13:01.071Z,18.13
2018-09-17T01:15:30.066Z,16.43
2018-09-17T01:17:58.705Z,19.00
2018-09-17T01:20:27.341Z,20.03
2018-09-17T01:22:55.918Z,19.00
2018-09-17T01:25:24.400Z,20.63
2018-09-17T01:27:53.083Z,21.33
2018-09-17T01:30:21.691Z,20.70
2018-09-17T01:32:50.152Z,20.70
2018-09-17T01:35:18.647Z,20.00
2018-09-17T01:37:47.319Z,22.33
2018-09-17T01:40:15.997Z,21.50
2018-09-17T01:42:44.582Z,20.40
2018-09-17T01:45:13.163Z,21.77
2018-09-17T01:47:41.646Z,21.37
2018-09-17T01:50:10.092Z,21.77
2018-09-17T01:52:39.014Z,20.93
2018-09-17T01:55:07.490Z,21.33
2018-09-17T01:57:36.033Z,21.97
2018-09-17T02:00:04.661Z,22.60
2018-09-17T02:02:33.047Z,21.77
2018-09-17T02:05:01.724Z,23.20
2018-09-17T02:07:30.309Z,21.13
2018-09-17T02:09:59.073Z,22.30
2018-09-17T02:12:27.595Z,22.63
2018-09-17T02:14:55.744Z,22.33
2018-09-17T02:17:23.930Z,23.43
2018-09-17T02:19:52.232Z,23.20
2018-09-17T02:22:21.095Z,22.57
2018-09-17T02:24:49.516Z,23.47
2018-09-17T02:27:17.947Z,21.17
2018-09-17T02:29:46.565Z,22.33
2018-09-17T02:32:15.132Z,23.47
2018-09-17T02:34:43.490Z,23.27
2018-09-17T02:37:12.077Z,23.40
2018-09-17T02:39:40.656Z,23.57
2018-09-17T02:42:09.311Z,22.93
2018-09-17T02:44:37.711Z,24.33
2018-09-17T02:47:06.114Z,24.10
2018-09-17T02:49:34.582Z,25.90
2018-09-17T02:52:03.163Z,23.90
2018-09-17T02:54:31.646Z,25.70
2018-09-17T02:57:00.228Z,25.70
2018-09-17T02:59:28.810Z,24.03
2018-09-17T03:01:57.503Z,23.40
2018-09-17T03:04:26.086Z,25.83
2018-09-17T03:06:54.677Z,25.70
2018-09-17T03:09:23.243Z,27.77
2018-09-17T03:11:51.830Z,25.43
2018-09-17T03:14:26.366Z,25.17
2018-09-17T03:17:00.259Z,25.97
2018-09-17T03:19:28.842Z,27.63
2018-09-17T03:21:57.422Z,27.57
2018-09-17T03:24:25.965Z,27.03
2018-09-17T03:26:54.903Z,28.47
2018-09-17T03:29:23.374Z,26.97
2018-09-17T03:31:51.959Z,27.77
2018-09-17T03:34:20.540Z,27.30
2018-09-17T03:36:49.020Z,26.83
2018-09-17T03:39:17.610Z,27.47
2018-09-17T03:41:46.395Z,28.00
2018-09-17T03:44:15.590Z,27.00
2018-09-17T03:46:44.329Z,28.20
2018-09-17T03:49:13.064Z,29.20
2018-09-17T03:51:41.479Z,28.00
2018-09-17T03:54:10.127Z,28.97
2018-09-17T03:56:38.607Z,30.13
2018-09-17T03:59:09.062Z,28.83
2018-09-17T04:01:38.028Z,27.90
2018-09-17T04:04:06.612Z,29.57
2018-09-17T04:06:35.299Z,29.27
2018-09-17T04:09:04.593Z,30.43
2018-09-17T04:11:33.382Z,29.27
2018-09-17T04:14:01.967Z,29.43
2018-09-17T04:16:30.546Z,29.40
2018-09-17T04:18:59.232Z,29.90
2018-09-17T04:21:27.840Z,30.07
2018-09-17T04:23:56.403Z,29.93
2018-09-17T04:26:25.085Z,29.23
2018-09-17T04:28:53.667Z,30.93
2018-09-17T04:31:22.152Z,28.70
2018-09-17T04:33:50.742Z,30.00
2018-09-17T04:36:19.241Z,31.03
2018-09-17T04:38:47.791Z,29.97
2018-09-17T04:41:50.656Z,33.25
2018-09-17T04:44:55.472Z,30.70
2018-09-17T04:47:23.893Z,33.33
2018-09-17T04:49:52.136Z,31.60
2018-09-17T04:52:21.242Z,32.17
2018-09-17T04:54:49.743Z,32.00
2018-09-17T04:57:18.375Z,33.20
2018-09-17T04:59:46.911Z,30.50
2018-09-17T05:02:15.081Z,31.63
2018-09-17T05:04:44.251Z,30.07
2018-09-17T05:07:13.858Z,30.57
2018-09-17T05:09:42.390Z,31.43
2018-09-17T05:12:10.583Z,32.97
2018-09-17T05:14:38.798Z,33.00
2018-09-17T05:17:06.975Z,37.63
2018-09-17T05:19:35.133Z,36.40
2018-09-17T05:22:03.335Z,37.43
2018-09-17T05:24:31.632Z,36.57
2018-09-17T05:26:59.789Z,35.97
2018-09-17T05:29:28.489Z,42.20
2018-09-17T05:31:56.742Z,35.77
2018-09-17T05:34:24.923Z,39.43
2018-09-17T05:36:53.096Z,42.07
2018-09-17T05:39:21.578Z,39.80
2018-09-17T05:41:50.115Z,41.20
2018-09-17T05:44:18.386Z,41.30
2018-09-17T05:46:47.118Z,42.87
2018-09-17T05:49:15.600Z,46.30
2018-09-17T05:51:44.284Z,55.07
2018-09-17T05:54:12.867Z,56.77
2018-09-17T05:56:41.452Z,58.00
2018-09-17T05:59:10.137Z,54.00
2018-09-17T06:01:38.924Z,49.23
2018-09-17T06:04:07.404Z,42.30
2018-09-17T06:06:36.295Z,40.10
2018-09-17T06:09:07.235Z,39.53
2018-09-17T06:11:35.812Z,35.50
2018-09-17T06:14:04.401Z,34.90
2018-09-17T06:16:32.683Z,33.80
2018-09-17T06:19:01.468Z,33.17
2018-09-17T06:21:30.249Z,32.27
2018-09-17T06:23:58.468Z,31.60
2018-09-17T06:26:27.012Z,30.03
2018-09-17T06:28:55.704Z,31.30
2018-09-17T06:31:24.083Z,29.83
2018-09-17T06:33:52.464Z,32.80
2018-09-17T06:36:21.185Z,32.80
2018-09-17T06:38:50.330Z,31.63
2018-09-17T06:41:19.946Z,31.70
2018-09-17T06:43:48.946Z,28.00
2018-09-17T06:46:17.532Z,27.80
2018-09-17T06:48:45.891Z,26.57
2018-09-17T06:51:14.317Z,25.93
2018-09-17T06:53:42.891Z,23.67
2018-09-17T06:56:11.435Z,21.73
2018-09-17T06:58:40.120Z,23.10
2018-09-17T07:01:08.601Z,20.90
2018-09-17T07:03:37.184Z,21.75
2018-09-17T07:06:05.877Z,20.65
2018-09-17T07:08:34.347Z,20.10
2018-09-17T07:11:02.937Z,19.87
2018-09-17T07:13:31.427Z,17.17
2018-09-17T07:16:00.099Z,15.18
2018-09-17T07:18:28.612Z,15.50
2018-09-17T07:20:57.059Z,17.20
2018-09-17T07:23:25.848Z,15.88
2018-09-17T07:25:54.880Z,18.02
2018-09-17T07:28:23.527Z,18.15
2018-09-17T07:30:52.211Z,18.37
2018-09-17T07:33:20.698Z,17.77
2018-09-17T07:35:49.379Z,16.67
2018-09-17T07:38:17.860Z,15.93
2018-09-17T07:40:46.475Z,16.67
2018-09-17T07:43:15.229Z,16.90
2018-09-17T07:45:43.913Z,16.57
2018-09-17T07:48:12.394Z,17.33
2018-09-17T07:50:41.080Z,18.13
2018-09-17T07:53:09.992Z,17.87
2018-09-17T07:55:38.860Z,17.63
2018-09-17T07:58:07.269Z,17.53
2018-09-17T08:00:35.721Z,17.53
2018-09-17T08:03:04.300Z,18.57
2018-09-17T08:05:33.003Z,17.77
2018-09-17T08:08:01.467Z,17.20
2018-09-17T08:10:45.440Z,18.43
2018-09-17T08:13:14.021Z,19.37
2018-09-17T08:15:42.603Z,17.53
2018-09-17T08:18:11.404Z,18.87
2018-09-17T08:20:40.512Z,18.27
2018-09-17T08:23:09.029Z,18.50
2018-09-17T08:25:37.581Z,18.20
2018-09-17T08:28:06.034Z,17.43
2018-09-17T08:30:34.519Z,17.17
2018-09-17T08:33:03.094Z,17.33
2018-09-17T08:35:31.640Z,16.73
2018-09-17T08:38:00.264Z,18.23
2018-09-17T08:40:28.937Z,16.43
2018-09-17T08:42:57.453Z,17.33
2018-09-17T08:45:26.015Z,18.93
2018-09-17T08:47:54.593Z,18.73
2018-09-17T08:50:23.282Z,19.73
2018-09-17T08:52:51.910Z,18.03
2018-09-17T08:55:25.664Z,18.77
2018-09-17T08:58:01.621Z,15.60
2018-09-17T09:00:35.324Z,15.03
2018-09-17T09:03:09.358Z,16.53
2018-09-17T09:05:43.038Z,15.50
2018-09-17T09:08:11.623Z,17.70
2018-09-17T09:10:45.630Z,19.83
2018-09-17T09:14:23.948Z,20.80
2018-09-17T09:16:52.427Z,20.37
2018-09-17T09:19:20.914Z,20.17
2018-09-17T09:21:49.492Z,21.87
2018-09-17T09:24:17.969Z,20.57
2018-09-17T09:26:46.557Z,19.33
2018-09-17T09:29:15.347Z,19.20
2018-09-17T09:31:44.028Z,20.03
2018-09-17T09:34:12.525Z,20.40
2018-09-17T09:36:41.199Z,22.00
2018-09-17T09:39:10.638Z,19.73
2018-09-17T09:41:39.077Z,20.33
2018-09-17T09:44:07.687Z,20.30
2018-09-17T09:46:36.346Z,19.67
2018-09-17T09:49:05.137Z,19.60
2018-09-17T09:51:33.707Z,19.13
2018-09-17T09:54:02.198Z,19.90
2018-09-17T09:56:30.886Z,19.27
2018-09-17T09:58:59.364Z,19.53
2018-09-17T10:01:32.146Z,20.27
2018-09-17T10:04:05.958Z,19.07
2018-09-17T10:06:34.438Z,19.47
2018-09-17T10:09:08.294Z,20.77
2018-09-17T10:11:42.189Z,19.13
2018-09-17T10:14:16.154Z,19.67
2018-09-17T10:16:50.270Z,19.23
2018-09-17T10:19:20.500Z,19.50
2018-09-17T10:21:49.073Z,20.70
2018-09-17T10:24:17.662Z,17.83
2018-09-17T10:26:46.239Z,18.00
2018-09-17T10:29:14.815Z,18.23
2018-09-17T10:31:43.711Z,16.47
2018-09-17T10:34:12.498Z,18.80
2018-09-17T10:36:41.289Z,22.47
2018-09-17T10:39:12.224Z,17.23
2018-09-17T10:41:41.013Z,16.70
2018-09-17T10:44:09.495Z,16.30
2018-09-17T10:46:38.303Z,16.82
2018-09-17T10:49:07.291Z,16.40
2018-09-17T10:51:35.962Z,16.52
2018-09-17T10:54:04.542Z,14.68
2018-09-17T10:56:33.030Z,14.87
2018-09-17T10:59:01.913Z,16.20
2018-09-17T11:01:30.598Z,15.00
2018-09-17T11:03:59.179Z,14.83
2018-09-17T11:06:27.664Z,16.02
2018-09-17T11:08:56.347Z,14.45
2018-09-17T11:11:25.235Z,14.95
2018-09-17T11:13:53.719Z,14.75
2018-09-17T11:16:22.308Z,15.08
2018-09-17T11:18:50.992Z,15.05
2018-09-17T11:21:19.569Z,13.58
2018-09-17T11:23:48.153Z,14.75
2018-09-17T11:26:16.632Z,14.83
2018-09-17T11:28:44.752Z,14.60
2018-09-17T11:31:13.225Z,14.65
2018-09-17T11:33:41.768Z,15.03
2018-09-17T11:36:10.462Z,14.85
2018-09-17T11:38:38.605Z,14.70
2018-09-17T11:41:07.216Z,14.23
2018-09-17T11:43:35.897Z,14.18
2018-09-17T11:46:04.619Z,14.83
2018-09-17T11:48:33.267Z,14.15
2018-09-17T11:51:01.848Z,15.00
2018-09-17T11:53:30.688Z,14.78
2018-09-17T11:55:59.651Z,14.55
2018-09-17T11:58:27.807Z,14.65
2018-09-17T12:01:01.710Z,14.30
2018-09-17T12:03:35.358Z,15.18
2018-09-17T12:06:04.556Z,14.95
2018-09-17T12:08:33.197Z,15.45
2018-09-17T12:11:01.579Z,14.75
2018-09-17T12:13:30.261Z,14.87
2018-09-17T12:15:58.944Z,15.20
2018-09-17T12:18:27.524Z,14.50
2018-09-17T12:20:56.005Z,14.57
2018-09-17T12:23:24.597Z,15.30
2018-09-17T12:25:53.274Z,15.13
2018-09-17T12:28:21.803Z,15.53
2018-09-17T12:30:50.941Z,14.60
2018-09-17T12:33:19.434Z,14.13
2018-09-17T12:35:47.826Z,14.53
2018-09-17T12:38:16.807Z,14.73
2018-09-17T12:40:45.283Z,13.32
2018-09-17T12:43:13.764Z,15.10
2018-09-17T12:45:42.452Z,13.48
2018-09-17T12:48:11.140Z,15.53
2018-09-17T12:50:39.542Z,16.80
2018-09-17T12:53:08.001Z,16.00
2018-09-17T12:55:36.273Z,16.70
2018-09-17T12:58:04.957Z,17.73
2018-09-17T13:00:33.546Z,16.97
2018-09-17T13:03:02.115Z,18.80
2018-09-17T13:05:30.704Z,18.77
2018-09-17T13:07:59.496Z,18.50
2018-09-17T13:10:27.981Z,17.03
2018-09-17T13:12:56.564Z,17.97
2018-09-17T13:15:25.344Z,18.37
2018-09-17T13:17:53.923Z,18.87
2018-09-17T13:20:22.615Z,18.53
2018-09-17T13:22:51.297Z,17.73
2018-09-17T13:25:19.886Z,17.00
2018-09-17T13:27:48.266Z,19.63
2018-09-17T13:30:16.635Z,16.90
2018-09-17T13:32:45.325Z,16.97
2018-09-17T13:35:13.809Z,16.73
2018-09-17T13:37:42.184Z,16.77
2018-09-17T13:40:10.783Z,16.73
2018-09-17T13:42:39.404Z,17.10
2018-09-17T13:45:07.944Z,17.97
2018-09-17T13:47:36.425Z,18.03
2018-09-17T13:50:05.083Z,17.73
2018-09-17T13:52:33.583Z,17.27
2018-09-17T13:55:02.183Z,17.10
2018-09-17T13:57:31.257Z,18.33
2018-09-17T13:59:59.965Z,16.83
2018-09-17T14:02:28.643Z,16.60
2018-09-17T14:04:57.313Z,15.73
2018-09-17T14:07:25.713Z,16.90
2018-09-17T14:09:54.395Z,16.40
2018-09-17T14:12:22.957Z,17.30
2018-09-17T14:14:51.540Z,17.00
2018-09-17T14:17:20.025Z,17.37
2018-09-17T14:19:48.615Z,18.13
2018-09-17T14:22:17.187Z,18.03
2018-09-17T14:24:45.774Z,18.13
2018-09-17T14:27:14.455Z,18.87
2018-09-17T14:29:43.058Z,18.20
2018-09-17T14:32:17.150Z,18.27
2018-09-17T14:34:45.761Z,19.30
2018-09-17T14:37:14.458Z,19.10
2018-09-17T14:39:42.671Z,18.17
2018-09-17T14:42:11.278Z,18.87
2018-09-17T14:44:39.862Z,17.47
2018-09-17T14:47:08.458Z,18.03
2018-09-17T14:49:36.949Z,17.70
2018-09-17T14:52:05.663Z,16.00
2018-09-17T14:54:34.263Z,17.47
2018-09-17T14:57:02.630Z,18.47
2018-09-17T14:59:31.154Z,16.87
2018-09-17T15:01:59.740Z,15.40
2018-09-17T15:04:28.427Z,13.83
2018-09-17T15:06:57.131Z,13.90
2018-09-17T15:09:25.612Z,14.17
2018-09-17T15:11:54.115Z,14.13
2018-09-17T15:14:22.847Z,12.77
2018-09-17T15:16:51.439Z,13.43
2018-09-17T15:19:19.919Z,13.77
2018-09-17T15:21:48.607Z,12.93
2018-09-17T15:24:17.297Z,14.57
2018-09-17T15:26:45.877Z,13.47
2018-09-17T15:29:14.252Z,12.20
2018-09-17T15:31:42.745Z,12.20
2018-09-17T15:34:11.341Z,12.00
2018-09-17T15:36:39.927Z,10.70
2018-09-17T15:39:09.886Z,10.20
2018-09-17T15:41:38.728Z,11.60
2018-09-17T15:44:07.235Z,12.03
2018-09-17T15:46:35.574Z,11.53
2018-09-17T15:49:04.254Z,11.20
2018-09-17T15:51:32.673Z,10.17
2018-09-17T15:54:01.107Z,10.50
2018-09-17T15:56:29.596Z,9.60
2018-09-17T15:58:58.476Z,10.30
2018-09-17T16:01:27.072Z,9.97
2018-09-17T16:03:55.442Z,9.73
2018-09-17T16:06:24.021Z,10.57
2018-09-17T16:08:52.715Z,9.87
2018-09-17T16:11:21.294Z,10.50
2018-09-17T16:13:49.978Z,9.67
2018-09-17T16:16:18.454Z,9.43
2018-09-17T16:18:47.139Z,9.53
2018-09-17T16:21:15.620Z,9.60
2018-09-17T16:23:44.203Z,8.40
2018-09-17T16:26:12.892Z,9.33
2018-09-17T16:28:41.574Z,8.93
2018-09-17T16:31:10.067Z,8.43
2018-09-17T16:33:38.845Z,8.67
2018-09-17T16:36:07.631Z,9.10
2018-09-17T16:38:36.417Z,8.27
2018-09-17T16:41:05.003Z,8.53
2018-09-17T16:43:33.379Z,8.90
2018-09-17T16:46:02.239Z,8.83
2018-09-17T16:48:30.851Z,8.57
2018-09-17T16:51:00.148Z,8.27
2018-09-17T16:53:28.981Z,7.97
2018-09-17T16:55:57.523Z,8.20
2018-09-17T16:58:26.009Z,8.63
2018-09-17T17:00:54.588Z,8.07
2018-09-17T17:03:23.272Z,8.13
2018-09-17T17:05:51.823Z,8.30
2018-09-17T17:08:20.235Z,9.30
2018-09-17T17:10:48.958Z,8.40
2018-09-17T17:13:17.497Z,8.87
2018-09-17T17:15:48.779Z,9.17
2018-09-17T17:18:18.144Z,8.63
2018-09-17T17:20:47.045Z,8.60
2018-09-17T17:23:15.724Z,9.07
2018-09-17T17:25:44.117Z,8.87
2018-09-17T17:28:12.830Z,9.00
2018-09-17T17:30:41.373Z,8.40
2018-09-17T17:33:09.921Z,8.13
2018-09-17T17:35:38.852Z,9.27
2018-09-17T17:38:07.238Z,9.37
2018-09-17T17:40:35.826Z,8.73
2018-09-17T17:43:04.388Z,8.77
2018-09-17T17:45:32.921Z,8.40
2018-09-17T17:48:01.453Z,9.80
2018-09-17T17:50:29.929Z,9.73
2018-09-17T17:52:58.418Z,9.30
2018-09-17T17:55:26.583Z,8.70
2018-09-17T17:57:55.135Z,8.30
2018-09-17T18:00:23.702Z,9.40
2018-09-17T18:02:51.823Z,8.20
2018-09-17T18:05:20.209Z,8.17
2018-09-17T18:07:48.787Z,9.03
2018-09-17T18:10:17.371Z,8.68
2018-09-17T18:12:45.794Z,8.67
2018-09-17T18:15:14.265Z,7.70
2018-09-17T18:17:42.807Z,7.80
2018-09-17T18:20:11.315Z,8.00
2018-09-17T18:22:39.873Z,7.97
2018-09-17T18:25:08.376Z,7.83
2018-09-17T18:27:36.937Z,8.17
2018-09-17T18:30:05.728Z,8.13
2018-09-17T18:32:34.093Z,8.83
2018-09-17T18:35:02.995Z,8.67
2018-09-17T18:37:31.576Z,8.63
2018-09-17T18:40:00.265Z,8.53
2018-09-17T18:42:28.933Z,8.73
2018-09-17T18:44:57.391Z,9.10
2018-09-17T18:47:26.032Z,9.90
2018-09-17T18:49:54.594Z,10.07
2018-09-17T18:52:23.286Z,9.50
2018-09-17T18:54:51.965Z,8.87
2018-09-17T18:57:20.731Z,9.23
2018-09-17T18:59:49.289Z,9.40
2018-09-17T19:02:18.024Z,8.90
2018-09-17T19:04:46.414Z,9.90
2018-09-17T19:07:14.982Z,9.90
2018-09-17T19:09:48.070Z,10.35
2018-09-17T19:12:17.322Z,9.53
2018-09-17T19:14:51.397Z,9.43
2018-09-17T19:17:25.106Z,9.30
2018-09-17T19:19:53.919Z,9.67
2018-09-17T19:22:27.634Z,8.80
2018-09-17T19:24:56.160Z,9.27
2018-09-17T19:28:28.637Z,9.40
2018-09-17T19:30:57.119Z,9.67
2018-09-17T19:33:25.598Z,10.53
2018-09-17T19:35:54.148Z,10.77
2018-09-17T19:38:28.093Z,10.90
2018-09-17T19:40:56.672Z,10.53
2018-09-17T19:43:25.155Z,11.00
2018-09-17T19:45:58.835Z,10.67
2018-09-17T19:48:27.438Z,10.87
2018-09-17T19:51:01.350Z,12.00
2018-09-17T19:53:29.933Z,14.83
2018-09-17T19:55:58.383Z,15.87
2018-09-17T19:58:31.938Z,14.30
2018-09-17T20:01:00.698Z,12.07
2018-09-17T20:03:29.186Z,11.93
2018-09-17T20:06:03.190Z,12.53
2018-09-17T20:08:31.667Z,12.00
2018-09-17T20:11:00.087Z,14.00
2018-09-17T20:13:28.528Z,16.73
2018-09-17T20:15:59.778Z,15.13
2018-09-17T20:18:28.458Z,15.10
2018-09-17T20:20:56.936Z,14.40
2018-09-17T20:23:25.425Z,13.63
2018-09-17T20:25:54.103Z,14.00
2018-09-17T20:28:22.790Z,14.77
2018-09-17T20:30:51.178Z,16.43
2018-09-17T20:33:20.370Z,16.47
2018-09-17T20:35:48.901Z,20.07
2018-09-17T20:38:17.448Z,18.00
2018-09-17T20:40:46.017Z,19.90
2018-09-17T20:43:14.430Z,17.50
2018-09-17T20:45:42.973Z,16.47
2018-09-17T20:48:11.555Z,16.27
2018-09-17T20:50:40.050Z,15.40
2018-09-17T20:53:08.724Z,14.67
2018-09-17T20:55:37.108Z,15.67
2018-09-17T20:58:05.682Z,13.70
2018-09-17T21:00:34.000Z,14.07
2018-09-17T21:03:02.376Z,13.33
2018-09-17T21:05:30.918Z,14.33
2018-09-17T21:07:59.427Z,15.47
2018-09-17T21:10:28.187Z,14.10
2018-09-17T21:12:56.840Z,15.40
2018-09-17T21:15:25.257Z,15.33
2018-09-17T21:17:53.936Z,13.83
2018-09-17T21:20:22.312Z,13.77
2018-09-17T21:22:50.797Z,14.50
2018-09-17T21:25:19.471Z,14.17
2018-09-17T21:27:47.880Z,12.87
2018-09-17T21:30:16.442Z,13.00
2018-09-17T21:32:45.129Z,14.40
2018-09-17T21:35:13.831Z,13.67
2018-09-17T21:37:42.395Z,14.87
2018-09-17T21:40:10.976Z,13.50
2018-09-17T21:42:39.562Z,14.30
2018-09-17T21:45:08.875Z,15.63
2018-09-17T21:47:37.286Z,15.80
2018-09-17T21:50:05.827Z,16.77
2018-09-17T21:52:34.536Z,15.27
2018-09-17T21:55:03.299Z,14.70
2018-09-17T21:57:32.176Z,15.33
2018-09-17T22:00:00.974Z,16.03
2018-09-17T22:02:29.568Z,16.67
2018-09-17T22:04:58.054Z,17.37
2018-09-17T22:07:26.717Z,17.53
2018-09-17T22:09:55.409Z,16.77
2018-09-17T22:12:23.993Z,16.70
2018-09-17T22:14:52.367Z,16.73
2018-09-17T22:17:21.159Z,17.03
2018-09-17T22:19:49.780Z,16.40
2018-09-17T22:22:18.324Z,17.57
2018-09-17T22:24:46.908Z,15.70
2018-09-17T22:27:15.202Z,16.77
2018-09-17T22:29:43.562Z,16.13
2018-09-17T22:32:12.054Z,16.37
2018-09-17T22:34:40.622Z,16.17
2018-09-17T22:37:09.102Z,16.87
2018-09-17T22:39:37.900Z,14.93
2018-09-17T22:42:06.444Z,15.77
2018-09-17T22:44:35.057Z,15.67
2018-09-17T22:47:03.847Z,15.67
2018-09-17T22:49:32.631Z,16.10
2018-09-17T22:52:01.113Z,16.20
2018-09-17T22:54:29.593Z,14.73
2018-09-17T22:56:58.278Z,16.57
2018-09-17T22:59:26.890Z,15.83
2018-09-17T23:01:55.447Z,14.83
2018-09-17T23:04:24.027Z,14.90
2018-09-17T23:06:52.713Z,15.40
2018-09-17T23:09:21.297Z,15.97
2018-09-17T23:11:49.981Z,14.73
2018-09-17T23:14:18.566Z,15.47
2018-09-17T23:16:47.148Z,14.60
2018-09-17T23:19:15.737Z,14.87
2018-09-17T23:21:44.312Z,15.13
2018-09-17T23:24:12.896Z,15.37
2018-09-17T23:26:41.178Z,14.33
2018-09-17T23:29:09.858Z,14.50
2018-09-17T23:31:38.338Z,14.03
2018-09-17T23:34:06.923Z,13.37
2018-09-17T23:36:35.606Z,14.70
2018-09-17T23:39:05.008Z,13.50
2018-09-17T23:41:33.528Z,13.13
2018-09-17T23:44:01.890Z,13.57
2018-09-17T23:46:30.449Z,12.93
2018-09-17T23:48:59.032Z,13.77
2018-09-17T23:51:27.618Z,14.33
2018-09-17T23:53:56.096Z,13.13
2018-09-17T23:56:24.684Z,13.83
2018-09-17T23:58:53.363Z,14.40
